LHBP/BUD METAR and TAF weather

Enter ICAO airport designator
Station Type Date Time Source
LHBP METAR 2019/02/16 03:00 UTC NOAA

LHBP 160300Z VRB03KT 1200 R13R/0325N R31L/0500U FZBCFG SCT003 M04/M04 Q1031 NOSIG


Station Type Date Time Source
LHBP Decoded METAR 2019/02/16 03:00 UTC NOAA

Budapest / Ferihegy, Hungary (LHBP) 47-26N 019-16E 185M
Feb 15, 2019 - 10:00 PM EST / 2019.02.16 0300 UTC
Wind: Variable at 3 MPH (3 KT):0
Visibility: less than 1 mile:0
Sky conditions: partly cloudy
Weather: freezing patches of fog
Temperature: 24 F (-4 C)
Dew Point: 24 F (-4 C)
Relative Humidity: 100%
Pressure (altimeter): 30.45 in. Hg (1031 hPa)
ob: LHBP 160300Z VRB03KT 1200 R13R/0325N R31L/0500U FZBCFG SCT003 M04/M04 Q1031 NOSIG
cycle: 3

Station Type Date Time Source
LHBP TAF 2019/02/15 18:27 UTC NOAA

TAF TAF LHBP 151715Z 1518/1618 25005KT CAVOK
BECMG 1521/1524 VRB03KT 3000 BR
TEMPO 1600/1606 1200 FZBCFG
BECMG 1606/1608 CAVOK
BECMG 1610/1612 21006KT


Example: see airport list